sensor_id;sensor_type;location;lat;lon;timestamp;P1;durP1;ratioP1;P2;durP2;ratioP2
13687;SDS011;6916;51.504;7.416;2023-02-18T00:02:03;27.43;;;22.60;;
13687;SDS011;6916;51.504;7.416;2023-02-18T00:12:06;31.50;;;25.03;;
13687;SDS011;6916;51.504;7.416;2023-02-18T00:22:28;29.03;;;24.23;;
13687;SDS011;6916;51.504;7.416;2023-02-18T00:32:30;33.33;;;26.37;;
13687;SDS011;6916;51.504;7.416;2023-02-18T00:42:34;33.37;;;25.27;;
13687;SDS011;6916;51.504;7.416;2023-02-18T00:52:36;31.30;;;25.07;;
13687;SDS011;6916;51.504;7.416;2023-02-18T01:02:38;36.40;;;26.00;;
13687;SDS011;6916;51.504;7.416;2023-02-18T01:12:41;36.50;;;25.27;;
13687;SDS011;6916;51.504;7.416;2023-02-18T01:22:43;33.40;;;25.20;;
13687;SDS011;6916;51.504;7.416;2023-02-18T01:32:45;34.23;;;24.67;;
13687;SDS011;6916;51.504;7.416;2023-02-18T01:42:48;29.37;;;21.43;;
13687;SDS011;6916;51.504;7.416;2023-02-18T01:52:51;29.07;;;21.70;;
13687;SDS011;6916;51.504;7.416;2023-02-18T02:02:54;29.63;;;20.97;;
13687;SDS011;6916;51.504;7.416;2023-02-18T02:13:02;32.33;;;21.10;;
13687;SDS011;6916;51.504;7.416;2023-02-18T02:33:47;24.83;;;18.57;;
13687;SDS011;6916;51.504;7.416;2023-02-18T02:54:35;25.50;;;17.33;;
13687;SDS011;6916;51.504;7.416;2023-02-18T03:15:16;13.67;;;11.30;;
13687;SDS011;6916;51.504;7.416;2023-02-18T03:25:22;14.07;;;10.33;;
13687;SDS011;6916;51.504;7.416;2023-02-18T03:35:25;11.50;;;10.03;;
13687;SDS011;6916;51.504;7.416;2023-02-18T03:45:28;9.93;;;8.27;;
13687;SDS011;6916;51.504;7.416;2023-02-18T03:55:32;10.90;;;9.10;;
13687;SDS011;6916;51.504;7.416;2023-02-18T04:05:34;11.37;;;9.40;;
13687;SDS011;6916;51.504;7.416;2023-02-18T04:15:37;14.97;;;10.07;;
13687;SDS011;6916;51.504;7.416;2023-02-18T04:25:39;15.87;;;10.63;;
13687;SDS011;6916;51.504;7.416;2023-02-18T04:35:42;13.67;;;9.77;;
13687;SDS011;6916;51.504;7.416;2023-02-18T04:45:44;13.33;;;8.83;;
13687;SDS011;6916;51.504;7.416;2023-02-18T04:55:50;10.50;;;8.07;;
13687;SDS011;6916;51.504;7.416;2023-02-18T05:05:53;7.43;;;5.67;;
13687;SDS011;6916;51.504;7.416;2023-02-18T05:15:55;5.70;;;4.23;;
13687;SDS011;6916;51.504;7.416;2023-02-18T05:25:57;4.03;;;2.70;;
13687;SDS011;6916;51.504;7.416;2023-02-18T05:36:00;1.70;;;1.60;;
13687;SDS011;6916;51.504;7.416;2023-02-18T05:46:02;1.33;;;1.13;;
13687;SDS011;6916;51.504;7.416;2023-02-18T05:56:05;1.07;;;0.63;;
13687;SDS011;6916;51.504;7.416;2023-02-18T06:06:08;1.00;;;0.70;;
13687;SDS011;6916;51.504;7.416;2023-02-18T06:16:11;0.90;;;0.90;;
13687;SDS011;6916;51.504;7.416;2023-02-18T06:26:13;1.10;;;0.90;;
13687;SDS011;6916;51.504;7.416;2023-02-18T06:36:15;1.20;;;0.80;;
13687;SDS011;6916;51.504;7.416;2023-02-18T06:46:17;1.47;;;1.37;;
13687;SDS011;6916;51.504;7.416;2023-02-18T06:56:20;2.33;;;1.77;;
13687;SDS011;6916;51.504;7.416;2023-02-18T07:06:22;1.47;;;1.37;;
13687;SDS011;6916;51.504;7.416;2023-02-18T07:16:24;1.57;;;1.40;;
13687;SDS011;6916;51.504;7.416;2023-02-18T07:26:26;1.67;;;1.43;;
13687;SDS011;6916;51.504;7.416;2023-02-18T07:36:28;1.60;;;1.30;;
13687;SDS011;6916;51.504;7.416;2023-02-18T07:46:31;1.60;;;1.50;;
13687;SDS011;6916;51.504;7.416;2023-02-18T07:56:34;2.00;;;1.80;;
13687;SDS011;6916;51.504;7.416;2023-02-18T08:06:38;2.30;;;2.03;;
13687;SDS011;6916;51.504;7.416;2023-02-18T08:16:43;2.10;;;1.67;;
13687;SDS011;6916;51.504;7.416;2023-02-18T08:26:46;0.73;;;0.73;;
13687;SDS011;6916;51.504;7.416;2023-02-18T08:37:01;0.70;;;0.50;;
13687;SDS011;6916;51.504;7.416;2023-02-18T08:47:04;2.60;;;0.60;;
13687;SDS011;6916;51.504;7.416;2023-02-18T08:57:26;0.80;;;0.30;;
13687;SDS011;6916;51.504;7.416;2023-02-18T09:07:29;0.83;;;0.53;;
13687;SDS011;6916;51.504;7.416;2023-02-18T09:17:31;2.13;;;0.80;;
13687;SDS011;6916;51.504;7.416;2023-02-18T09:27:34;4.57;;;1.10;;
13687;SDS011;6916;51.504;7.416;2023-02-18T09:37:36;4.00;;;1.87;;
13687;SDS011;6916;51.504;7.416;2023-02-18T09:47:42;7.37;;;2.13;;
13687;SDS011;6916;51.504;7.416;2023-02-18T09:57:46;4.63;;;2.23;;
13687;SDS011;6916;51.504;7.416;2023-02-18T10:07:51;3.77;;;2.40;;
13687;SDS011;6916;51.504;7.416;2023-02-18T10:17:57;9.80;;;3.07;;
13687;SDS011;6916;51.504;7.416;2023-02-18T10:28:00;9.27;;;3.20;;
13687;SDS011;6916;51.504;7.416;2023-02-18T10:38:11;10.20;;;2.77;;
13687;SDS011;6916;51.504;7.416;2023-02-18T11:19:55;8.20;;;3.30;;
13687;SDS011;6916;51.504;7.416;2023-02-18T11:30:00;6.07;;;3.30;;
13687;SDS011;6916;51.504;7.416;2023-02-18T11:40:06;8.63;;;4.47;;
13687;SDS011;6916;51.504;7.416;2023-02-18T11:50:21;5.50;;;2.43;;
13687;SDS011;6916;51.504;7.416;2023-02-18T12:20:54;4.73;;;4.07;;
13687;SDS011;6916;51.504;7.416;2023-02-18T12:41:41;8.37;;;5.70;;
13687;SDS011;6916;51.504;7.416;2023-02-18T13:12:34;6.90;;;6.20;;
13687;SDS011;6916;51.504;7.416;2023-02-18T13:22:41;9.47;;;8.57;;
13687;SDS011;6916;51.504;7.416;2023-02-18T13:53:34;10.77;;;8.77;;
13687;SDS011;6916;51.504;7.416;2023-02-18T14:13:51;12.63;;;9.27;;
13687;SDS011;6916;51.504;7.416;2023-02-18T14:23:57;12.63;;;9.83;;
13687;SDS011;6916;51.504;7.416;2023-02-18T14:34:18;15.37;;;12.50;;
13687;SDS011;6916;51.504;7.416;2023-02-18T14:54:44;23.93;;;16.93;;
13687;SDS011;6916;51.504;7.416;2023-02-18T15:04:47;24.60;;;18.67;;
13687;SDS011;6916;51.504;7.416;2023-02-18T15:14:52;24.70;;;18.87;;
13687;SDS011;6916;51.504;7.416;2023-02-18T15:24:56;27.73;;;19.50;;
13687;SDS011;6916;51.504;7.416;2023-02-18T15:35:01;26.23;;;18.73;;
13687;SDS011;6916;51.504;7.416;2023-02-18T15:45:16;25.20;;;18.97;;
13687;SDS011;6916;51.504;7.416;2023-02-18T15:55:38;24.17;;;17.80;;
13687;SDS011;6916;51.504;7.416;2023-02-18T16:05:43;22.53;;;18.77;;
13687;SDS011;6916;51.504;7.416;2023-02-18T16:15:48;19.77;;;16.87;;
13687;SDS011;6916;51.504;7.416;2023-02-18T16:25:54;19.37;;;17.10;;
13687;SDS011;6916;51.504;7.416;2023-02-18T16:35:57;24.10;;;17.90;;
13687;SDS011;6916;51.504;7.416;2023-02-18T16:56:26;27.37;;;20.07;;
13687;SDS011;6916;51.504;7.416;2023-02-18T17:06:32;29.40;;;21.73;;
13687;SDS011;6916;51.504;7.416;2023-02-18T17:16:35;32.20;;;21.20;;
13687;SDS011;6916;51.504;7.416;2023-02-18T17:26:37;26.33;;;19.47;;
13687;SDS011;6916;51.504;7.416;2023-02-18T17:36:40;27.50;;;18.27;;
13687;SDS011;6916;51.504;7.416;2023-02-18T17:46:46;24.47;;;17.50;;
13687;SDS011;6916;51.504;7.416;2023-02-18T17:56:51;23.27;;;17.57;;
13687;SDS011;6916;51.504;7.416;2023-02-18T18:06:56;18.60;;;15.43;;
13687;SDS011;6916;51.504;7.416;2023-02-18T18:16:59;23.53;;;16.60;;
13687;SDS011;6916;51.504;7.416;2023-02-18T18:37:10;24.23;;;18.87;;
13687;SDS011;6916;51.504;7.416;2023-02-18T18:47:14;29.63;;;19.40;;
13687;SDS011;6916;51.504;7.416;2023-02-18T18:57:17;22.60;;;16.70;;
13687;SDS011;6916;51.504;7.416;2023-02-18T19:07:19;15.60;;;13.40;;
13687;SDS011;6916;51.504;7.416;2023-02-18T19:17:22;22.17;;;17.87;;
13687;SDS011;6916;51.504;7.416;2023-02-18T19:27:25;20.17;;;15.73;;
13687;SDS011;6916;51.504;7.416;2023-02-18T19:37:30;22.13;;;16.30;;
13687;SDS011;6916;51.504;7.416;2023-02-18T19:47:34;21.57;;;16.00;;
13687;SDS011;6916;51.504;7.416;2023-02-18T19:57:37;19.03;;;14.73;;
13687;SDS011;6916;51.504;7.416;2023-02-18T20:18:11;25.93;;;19.17;;
13687;SDS011;6916;51.504;7.416;2023-02-18T20:28:13;29.30;;;18.83;;
13687;SDS011;6916;51.504;7.416;2023-02-18T20:38:17;24.80;;;18.33;;
13687;SDS011;6916;51.504;7.416;2023-02-18T20:48:19;25.07;;;17.90;;
13687;SDS011;6916;51.504;7.416;2023-02-18T20:58:23;27.53;;;17.67;;
13687;SDS011;6916;51.504;7.416;2023-02-18T21:08:25;27.03;;;16.57;;
13687;SDS011;6916;51.504;7.416;2023-02-18T21:18:28;20.50;;;15.03;;
13687;SDS011;6916;51.504;7.416;2023-02-18T21:28:31;24.00;;;16.97;;
13687;SDS011;6916;51.504;7.416;2023-02-18T21:38:34;28.43;;;17.60;;
13687;SDS011;6916;51.504;7.416;2023-02-18T21:48:37;23.30;;;17.27;;
13687;SDS011;6916;51.504;7.416;2023-02-18T21:58:58;22.97;;;16.27;;
13687;SDS011;6916;51.504;7.416;2023-02-18T22:09:01;20.03;;;15.53;;
13687;SDS011;6916;51.504;7.416;2023-02-18T22:19:04;17.90;;;12.57;;
13687;SDS011;6916;51.504;7.416;2023-02-18T22:29:07;14.60;;;12.23;;
13687;SDS011;6916;51.504;7.416;2023-02-18T22:39:09;14.67;;;11.47;;
13687;SDS011;6916;51.504;7.416;2023-02-18T22:49:12;17.07;;;12.33;;
13687;SDS011;6916;51.504;7.416;2023-02-18T22:59:16;16.50;;;12.97;;
13687;SDS011;6916;51.504;7.416;2023-02-18T23:09:20;19.27;;;14.17;;
13687;SDS011;6916;51.504;7.416;2023-02-18T23:19:25;21.33;;;15.63;;
13687;SDS011;6916;51.504;7.416;2023-02-18T23:29:28;15.70;;;13.03;;
13687;SDS011;6916;51.504;7.416;2023-02-18T23:39:30;17.97;;;12.77;;
13687;SDS011;6916;51.504;7.416;2023-02-18T23:49:33;13.53;;;11.40;;
13687;SDS011;6916;51.504;7.416;2023-02-18T23:59:35;14.47;;;12.83;;
